createdAt,value
2023-04-25T00:02:25.977Z,72.97
2023-04-25T00:07:29.492Z,73.71
2023-04-25T00:12:31.848Z,74.76
2023-04-25T00:17:34.214Z,75.43
2023-04-25T00:22:37.858Z,75.96
2023-04-25T00:27:40.239Z,75.69
2023-04-25T00:32:42.455Z,75.29
2023-04-25T00:37:46.015Z,76.01
2023-04-25T00:42:48.557Z,75.14
2023-04-25T00:47:50.968Z,75.87
2023-04-25T00:52:54.459Z,77.15
2023-04-25T00:57:56.587Z,75.90
2023-04-25T01:02:59.841Z,75.93
2023-04-25T01:08:03.842Z,76.21
2023-04-25T01:13:06.552Z,76.17
2023-04-25T01:18:08.292Z,76.36
2023-04-25T01:23:13.762Z,76.58
2023-04-25T01:28:15.851Z,76.37
2023-04-25T01:33:20.132Z,76.38
2023-04-25T01:38:23.869Z,76.60
2023-04-25T01:43:26.256Z,76.75
2023-04-25T01:48:28.526Z,76.74
2023-04-25T01:53:32.047Z,76.79
2023-04-25T01:58:34.292Z,76.78
2023-04-25T02:03:36.496Z,77.26
2023-04-25T02:08:40.060Z,77.13
2023-04-25T02:13:42.422Z,77.52
2023-04-25T02:18:44.511Z,77.08
2023-04-25T02:23:48.106Z,77.20
2023-04-25T02:28:50.355Z,77.51
2023-04-25T02:33:52.910Z,77.58
2023-04-25T02:38:56.516Z,77.61
2023-04-25T02:43:58.998Z,77.23
2023-04-25T02:49:01.110Z,77.60
2023-04-25T02:54:04.676Z,77.91
2023-04-25T02:59:07.000Z,77.91
2023-04-25T03:04:09.057Z,77.52
2023-04-25T03:09:12.459Z,77.60
2023-04-25T03:14:14.829Z,78.05
2023-04-25T03:19:17.006Z,78.12
2023-04-25T03:24:20.580Z,78.18
2023-04-25T03:29:22.930Z,78.20
2023-04-25T03:34:24.934Z,77.81
2023-04-25T03:39:28.408Z,78.12
2023-04-25T03:49:32.717Z,78.98
2023-04-25T03:54:35.735Z,79.62
2023-04-25T03:59:37.856Z,80.02
2023-04-25T04:04:40.164Z,79.87
2023-04-25T04:09:43.792Z,80.07
2023-04-25T04:14:45.979Z,79.92
2023-04-25T04:19:47.703Z,80.29
2023-04-25T04:24:51.530Z,80.60
2023-04-25T04:29:53.634Z,79.98
2023-04-25T04:34:55.731Z,80.12
2023-04-25T04:39:59.187Z,80.13
2023-04-25T04:45:00.877Z,79.92
2023-04-25T04:50:03.127Z,79.42
2023-04-25T04:55:07.806Z,79.19
2023-04-25T05:00:11.274Z,79.62
2023-04-25T05:05:13.329Z,79.50
2023-04-25T05:10:16.796Z,79.54
2023-04-25T05:15:19.221Z,80.36
2023-04-25T05:20:21.106Z,80.36
2023-04-25T05:25:24.221Z,79.83
2023-04-25T05:30:26.287Z,79.10
2023-04-25T05:35:28.055Z,78.93
2023-04-25T05:40:31.554Z,79.06
2023-04-25T05:45:34.071Z,79.38
2023-04-25T05:50:36.149Z,78.32
2023-04-25T05:55:39.787Z,76.92
2023-04-25T06:00:41.491Z,75.37
2023-04-25T06:05:44.033Z,74.47
2023-04-25T06:10:47.388Z,74.72
2023-04-25T06:15:49.363Z,74.92
2023-04-25T06:20:51.041Z,75.47
2023-04-25T06:25:56.396Z,75.49
2023-04-25T06:30:58.379Z,75.24
2023-04-25T06:36:00.124Z,75.15
2023-04-25T06:41:22.013Z,74.88
2023-04-25T06:46:24.298Z,75.72
2023-04-25T06:51:26.013Z,76.44
2023-04-25T06:56:29.950Z,76.71
2023-04-25T07:01:31.813Z,76.63
2023-04-25T07:06:33.598Z,76.81
2023-04-25T07:11:37.519Z,77.45
2023-04-25T07:16:39.836Z,77.61
2023-04-25T07:21:42.036Z,76.50
2023-04-25T07:26:45.238Z,76.68
2023-04-25T07:31:47.102Z,76.40
2023-04-25T07:36:48.890Z,75.88
2023-04-25T07:41:54.990Z,76.17
2023-04-25T07:46:57.110Z,74.54
2023-04-25T07:51:59.195Z,75.71
2023-04-25T07:57:02.658Z,74.87
2023-04-25T08:02:04.523Z,76.39
2023-04-25T08:07:06.635Z,76.81
2023-04-25T08:12:09.673Z,75.97
2023-04-25T08:17:12.014Z,74.73
2023-04-25T08:22:13.776Z,71.99
2023-04-25T08:27:17.319Z,70.14
2023-04-25T08:32:19.490Z,72.13
2023-04-25T08:37:21.669Z,69.85
2023-04-25T08:42:28.051Z,69.76
2023-04-25T08:47:31.172Z,68.50
2023-04-25T08:52:37.552Z,59.84
2023-04-25T08:57:42.158Z,54.98
2023-04-25T09:02:44.981Z,52.19
2023-04-25T09:07:48.549Z,45.13
2023-04-25T09:13:05.602Z,45.21
2023-04-25T09:18:07.943Z,48.44
2023-04-25T09:23:10.232Z,49.87
2023-04-25T09:28:13.674Z,45.81
2023-04-25T09:33:15.818Z,46.15
2023-04-25T09:38:19.737Z,47.91
2023-04-25T09:43:24.943Z,50.04
2023-04-25T09:48:28.828Z,47.91
2023-04-25T09:53:30.985Z,44.16
2023-04-25T09:58:35.053Z,40.79
2023-04-25T10:03:38.463Z,45.41
2023-04-25T10:08:41.830Z,47.25
2023-04-25T10:13:46.665Z,46.29
2023-04-25T10:18:49.868Z,46.17
2023-04-25T10:23:53.110Z,45.92
2023-04-25T10:29:00.951Z,46.90
2023-04-25T10:34:02.737Z,45.44
2023-04-25T10:39:06.253Z,47.69
2023-04-25T10:44:09.983Z,48.47
2023-04-25T10:49:13.656Z,48.13
2023-04-25T10:54:19.175Z,47.80
2023-04-25T10:59:26.400Z,48.61
2023-04-25T11:04:31.516Z,50.40
2023-04-25T11:09:34.887Z,49.48
2023-04-25T11:19:43.582Z,48.94
2023-04-25T11:24:46.919Z,49.43
2023-04-25T11:29:50.589Z,51.05
2023-04-25T11:34:53.948Z,51.17
2023-04-25T11:39:56.022Z,50.30
2023-04-25T11:44:59.469Z,48.10
2023-04-25T11:50:01.979Z,48.42
2023-04-25T11:55:06.281Z,48.75
2023-04-25T12:00:14.505Z,48.33
2023-04-25T12:10:26.300Z,46.61
2023-04-25T12:15:29.758Z,47.00
2023-04-25T12:20:32.614Z,46.21
2023-04-25T12:25:39.128Z,43.59
2023-04-25T12:30:59.991Z,41.31
2023-04-25T12:36:04.472Z,43.79
2023-04-25T12:41:08.321Z,45.35
2023-04-25T12:46:11.709Z,45.65
2023-04-25T12:51:13.830Z,47.10
2023-04-25T12:56:15.586Z,48.84
2023-04-25T13:01:18.767Z,48.16
2023-04-25T13:06:21.856Z,46.86
2023-04-25T13:11:23.795Z,47.11
2023-04-25T13:16:26.959Z,47.93
2023-04-25T13:21:31.476Z,45.44
2023-04-25T13:26:33.481Z,46.48
2023-04-25T13:31:36.888Z,45.20
2023-04-25T13:36:39.048Z,46.96
2023-04-25T13:41:41.083Z,45.72
2023-04-25T13:46:47.219Z,47.79
2023-04-25T13:51:50.045Z,48.99
2023-04-25T13:56:52.135Z,49.88
2023-04-25T14:01:55.885Z,50.27
2023-04-25T14:06:58.282Z,50.21
2023-04-25T14:12:00.384Z,50.81
2023-04-25T14:17:04.323Z,52.32
2023-04-25T14:22:06.962Z,53.81
2023-04-25T14:27:09.107Z,56.20
2023-04-25T14:32:12.715Z,55.75
2023-04-25T14:37:14.798Z,53.97
2023-04-25T14:42:16.881Z,52.83
2023-04-25T14:47:20.247Z,49.62
2023-04-25T14:52:21.921Z,49.76
2023-04-25T14:57:23.637Z,52.21
2023-04-25T15:02:27.410Z,53.32
2023-04-25T15:07:29.590Z,53.37
2023-04-25T15:12:31.634Z,53.28
2023-04-25T15:17:35.311Z,53.19
2023-04-25T15:22:37.848Z,53.04
2023-04-25T15:27:40.809Z,52.18
2023-04-25T15:32:44.717Z,52.38
2023-04-25T15:37:47.237Z,52.77
2023-04-25T15:42:50.772Z,52.96
2023-04-25T15:47:55.417Z,53.83
2023-04-25T15:52:57.120Z,52.47
2023-04-25T15:57:59.140Z,52.02
2023-04-25T16:03:02.890Z,52.08
2023-04-25T16:08:04.880Z,52.62
2023-04-25T16:13:06.981Z,52.46
2023-04-25T16:18:10.516Z,52.43
2023-04-25T16:23:12.756Z,54.64
2023-04-25T16:28:14.831Z,57.96
2023-04-25T16:33:17.978Z,59.25
2023-04-25T16:38:20.236Z,61.03
2023-04-25T16:43:22.293Z,61.87
2023-04-25T16:48:25.654Z,61.43
2023-04-25T16:53:27.535Z,60.83
2023-04-25T16:58:29.700Z,58.17
2023-04-25T17:03:34.851Z,55.54
2023-04-25T17:08:37.792Z,55.41
2023-04-25T17:13:39.901Z,56.09
2023-04-25T17:18:43.464Z,55.07
2023-04-25T17:23:45.800Z,55.83
2023-04-25T17:28:47.740Z,57.13
2023-04-25T17:33:50.763Z,57.76
2023-04-25T17:38:52.566Z,57.53
2023-04-25T17:43:54.483Z,57.99
2023-04-25T17:48:57.781Z,58.52
2023-04-25T17:53:59.463Z,59.04
2023-04-25T17:59:01.260Z,59.96
2023-04-25T18:04:05.090Z,60.71
2023-04-25T18:09:07.543Z,60.38
2023-04-25T18:14:09.522Z,61.46
2023-04-25T18:19:13.079Z,62.42
2023-04-25T18:24:15.593Z,63.18
2023-04-25T18:29:31.402Z,63.58
2023-04-25T18:34:37.462Z,64.31
2023-04-25T18:39:39.656Z,63.61
2023-04-25T18:44:41.775Z,62.00
2023-04-25T18:49:45.367Z,61.79
2023-04-25T18:54:47.125Z,59.96
2023-04-25T18:59:48.881Z,60.18
2023-04-25T19:04:51.998Z,59.58
2023-04-25T19:09:53.841Z,60.17
2023-04-25T19:14:55.592Z,60.44
2023-04-25T19:19:58.790Z,61.09
2023-04-25T19:25:09.906Z,61.99
2023-04-25T19:30:13.796Z,61.43
2023-04-25T19:35:17.656Z,62.96
2023-04-25T19:40:19.997Z,63.60
2023-04-25T19:45:22.368Z,65.52
2023-04-25T19:50:25.575Z,66.09
2023-04-25T19:55:27.502Z,66.15
2023-04-25T20:00:29.191Z,66.10
2023-04-25T20:05:32.301Z,66.30
2023-04-25T20:10:34.239Z,66.91
2023-04-25T20:15:36.184Z,67.08
2023-04-25T20:20:39.346Z,68.06
2023-04-25T20:25:41.349Z,69.15
2023-04-25T20:30:44.088Z,69.23
2023-04-25T20:35:47.418Z,69.42
2023-04-25T20:40:49.635Z,70.26
2023-04-25T20:45:51.520Z,71.19
2023-04-25T20:50:54.560Z,71.04
2023-04-25T20:55:56.744Z,71.10
2023-04-25T21:00:59.060Z,71.17
2023-04-25T21:06:02.661Z,71.04
2023-04-25T21:11:04.825Z,70.34
2023-04-25T21:16:07.335Z,70.99
2023-04-25T21:21:10.626Z,70.94
2023-04-25T21:26:12.933Z,70.15
2023-04-25T21:31:15.119Z,69.84
2023-04-25T21:36:18.705Z,70.33
2023-04-25T21:41:20.745Z,70.71
2023-04-25T21:46:23.836Z,71.42
2023-04-25T21:51:27.481Z,72.20
2023-04-25T21:56:29.407Z,73.11
2023-04-25T22:01:31.648Z,73.49
2023-04-25T22:06:35.180Z,73.98
2023-04-25T22:11:37.282Z,74.42
2023-04-25T22:16:39.754Z,73.69
2023-04-25T22:21:43.742Z,73.07
2023-04-25T22:26:46.122Z,73.15
2023-04-25T22:31:48.137Z,73.26
2023-04-25T22:36:51.554Z,72.75
2023-04-25T22:41:53.768Z,72.81
2023-04-25T22:46:55.913Z,72.73
2023-04-25T22:51:59.392Z,73.20
2023-04-25T22:57:01.569Z,73.91
2023-04-25T23:02:03.755Z,74.21
2023-04-25T23:07:06.894Z,74.00
2023-04-25T23:12:08.868Z,74.90
2023-04-25T23:17:10.806Z,74.52
2023-04-25T23:22:14.442Z,74.29
2023-04-25T23:27:17.040Z,74.31
2023-04-25T23:32:19.395Z,74.01
2023-04-25T23:37:23.024Z,75.29
2023-04-25T23:42:25.121Z,76.14
2023-04-25T23:47:27.298Z,76.10
2023-04-25T23:52:30.818Z,77.07
2023-04-25T23:57:33.248Z,77.53
